createdAt,value
2017-12-01T00:02:24.591Z,9.73
2017-12-01T00:04:51.318Z,10.90
2017-12-01T00:07:18.049Z,9.57
2017-12-01T00:09:44.842Z,10.35
2017-12-01T00:12:11.545Z,10.50
2017-12-01T00:14:38.276Z,11.37
2017-12-01T00:17:04.999Z,8.45
2017-12-01T00:19:31.750Z,7.45
2017-12-01T00:21:58.454Z,7.72
2017-12-01T00:24:25.172Z,10.00
2017-12-01T00:26:51.897Z,9.93
2017-12-01T00:29:18.623Z,9.93
2017-12-01T00:31:45.382Z,10.50
2017-12-01T00:34:12.112Z,10.65
2017-12-01T00:36:38.863Z,9.63
2017-12-01T00:39:05.603Z,10.32
2017-12-01T00:41:32.309Z,10.63
2017-12-01T00:43:59.075Z,11.05
2017-12-01T00:46:25.802Z,9.02
2017-12-01T00:48:52.562Z,11.07
2017-12-01T00:51:19.278Z,9.77
2017-12-01T00:53:46.044Z,11.57
2017-12-01T00:56:12.777Z,9.63
2017-12-01T00:58:39.530Z,9.55
2017-12-01T01:01:06.335Z,10.90
2017-12-01T01:03:33.064Z,10.38
2017-12-01T01:05:59.814Z,10.70
2017-12-01T01:08:26.576Z,10.65
2017-12-01T01:10:53.318Z,9.85
2017-12-01T01:13:20.042Z,11.23
2017-12-01T01:15:46.796Z,10.63
2017-12-01T01:18:13.533Z,9.63
2017-12-01T01:20:40.294Z,9.85
2017-12-01T01:23:07.062Z,10.98
2017-12-01T01:25:33.815Z,9.90
2017-12-01T01:28:00.555Z,9.90
2017-12-01T01:30:27.301Z,10.18
2017-12-01T01:32:54.047Z,9.57
2017-12-01T01:35:20.816Z,10.75
2017-12-01T01:37:47.529Z,9.93
2017-12-01T01:40:14.273Z,10.07
2017-12-01T01:42:40.999Z,9.50
2017-12-01T01:45:07.746Z,9.40
2017-12-01T01:47:34.491Z,10.32
2017-12-01T01:50:01.276Z,9.65
2017-12-01T01:52:28.029Z,9.10
2017-12-01T01:54:54.778Z,8.52
2017-12-01T01:57:21.509Z,8.27
2017-12-01T01:59:48.274Z,8.02
2017-12-01T02:02:15.028Z,8.77
2017-12-01T02:04:41.773Z,6.62
2017-12-01T02:07:08.500Z,7.32
2017-12-01T02:09:35.258Z,7.60
2017-12-01T02:12:01.996Z,6.20
2017-12-01T02:14:28.744Z,7.03
2017-12-01T02:16:55.509Z,6.80
2017-12-01T02:19:22.318Z,5.90
2017-12-01T02:21:49.057Z,6.82
2017-12-01T02:24:15.801Z,5.85
2017-12-01T02:26:42.524Z,5.30
2017-12-01T02:29:09.258Z,5.45
2017-12-01T02:31:36.030Z,5.60
2017-12-01T02:34:02.781Z,5.90
2017-12-01T02:36:29.527Z,6.20
2017-12-01T02:38:56.287Z,6.05
2017-12-01T02:41:23.040Z,6.20
2017-12-01T02:43:49.801Z,6.70
2017-12-01T02:46:16.576Z,6.40
2017-12-01T02:48:43.314Z,6.35
2017-12-01T02:51:10.074Z,6.65
2017-12-01T02:53:36.831Z,7.43
2017-12-01T02:56:03.569Z,5.10
2017-12-01T02:58:30.327Z,6.57
2017-12-01T03:00:57.082Z,7.20
2017-12-01T03:03:23.833Z,9.02
2017-12-01T03:05:50.564Z,8.20
2017-12-01T03:08:17.313Z,8.32
2017-12-01T03:10:44.089Z,8.82
2017-12-01T03:13:10.828Z,9.30
2017-12-01T03:15:37.572Z,9.20
2017-12-01T03:18:04.332Z,8.10
2017-12-01T03:20:31.072Z,8.32
2017-12-01T03:22:57.813Z,8.63
2017-12-01T03:25:24.558Z,8.88
2017-12-01T03:27:51.302Z,9.07
2017-12-01T03:30:18.045Z,8.98
2017-12-01T03:32:44.793Z,9.27
2017-12-01T03:35:11.546Z,8.57
2017-12-01T03:37:38.301Z,8.88
2017-12-01T03:40:05.049Z,9.55
2017-12-01T03:42:31.793Z,8.77
2017-12-01T03:44:58.543Z,9.25
2017-12-01T03:47:25.290Z,9.30
2017-12-01T03:49:52.028Z,8.93
2017-12-01T03:52:18.783Z,9.50
2017-12-01T03:54:45.527Z,9.57
2017-12-01T03:57:12.267Z,8.10
2017-12-01T03:59:39.029Z,8.07
2017-12-01T04:02:05.766Z,7.80
2017-12-01T04:04:32.554Z,8.40
2017-12-01T04:06:59.318Z,8.98
2017-12-01T04:09:26.055Z,7.47
2017-12-01T04:11:52.794Z,7.43
2017-12-01T04:14:19.587Z,7.05
2017-12-01T04:16:46.337Z,8.73
2017-12-01T04:19:13.117Z,8.80
2017-12-01T04:21:39.879Z,8.88
2017-12-01T04:24:06.617Z,7.43
2017-12-01T04:26:33.368Z,8.32
2017-12-01T04:29:00.137Z,7.95
2017-12-01T04:31:26.889Z,8.60
2017-12-01T04:33:53.632Z,9.13
2017-12-01T04:36:20.383Z,7.78
2017-12-01T04:38:47.133Z,7.82
2017-12-01T04:41:13.885Z,8.80
2017-12-01T04:43:40.634Z,7.65
2017-12-01T04:46:07.379Z,7.35
2017-12-01T04:48:34.141Z,7.00
2017-12-01T04:51:00.898Z,6.45
2017-12-01T04:53:27.656Z,6.90
2017-12-01T04:55:54.407Z,8.00
2017-12-01T04:58:21.158Z,7.32
2017-12-01T05:00:47.897Z,7.35
2017-12-01T05:03:14.634Z,7.90
2017-12-01T05:05:41.383Z,8.40
2017-12-01T05:08:08.161Z,8.00
2017-12-01T05:10:34.915Z,8.48
2017-12-01T05:13:01.666Z,8.48
2017-12-01T05:15:28.397Z,7.45
2017-12-01T05:17:55.138Z,7.47
2017-12-01T05:20:21.883Z,6.47
2017-12-01T05:22:48.618Z,6.30
2017-12-01T05:25:15.371Z,7.43
2017-12-01T05:27:42.105Z,8.15
2017-12-01T05:30:08.865Z,7.05
2017-12-01T05:32:35.628Z,6.47
2017-12-01T05:35:02.403Z,6.90
2017-12-01T05:37:29.160Z,6.40
2017-12-01T05:39:55.923Z,7.60
2017-12-01T05:42:22.655Z,8.00
2017-12-01T05:44:49.405Z,7.53
2017-12-01T05:47:16.149Z,6.40
2017-12-01T05:49:42.907Z,6.68
2017-12-01T05:52:09.654Z,7.00
2017-12-01T05:54:36.420Z,6.82
2017-12-01T05:57:03.178Z,6.95
2017-12-01T05:59:29.927Z,6.32
2017-12-01T06:01:56.678Z,6.18
2017-12-01T06:04:23.447Z,6.62
2017-12-01T06:06:50.216Z,6.78
2017-12-01T06:09:16.966Z,6.30
2017-12-01T06:11:43.730Z,7.18
2017-12-01T06:14:10.471Z,6.72
2017-12-01T06:16:37.209Z,7.30
2017-12-01T06:19:03.967Z,5.78
2017-12-01T06:21:30.752Z,5.45
2017-12-01T06:23:57.504Z,6.18
2017-12-01T06:26:24.487Z,6.53
2017-12-01T06:28:51.226Z,5.87
2017-12-01T06:31:17.978Z,7.28
2017-12-01T06:33:44.732Z,6.70
2017-12-01T06:36:11.472Z,7.65
2017-12-01T06:38:38.231Z,8.45
2017-12-01T06:41:04.981Z,8.20
2017-12-01T06:43:31.746Z,8.63
2017-12-01T06:45:58.491Z,8.15
2017-12-01T06:48:25.238Z,8.98
2017-12-01T06:50:51.973Z,9.55
2017-12-01T06:53:18.723Z,12.85
2017-12-01T06:55:45.490Z,11.73
2017-12-01T06:58:12.319Z,12.05
2017-12-01T07:00:39.103Z,13.32
2017-12-01T07:03:05.919Z,14.85
2017-12-01T07:05:32.693Z,14.77
2017-12-01T07:07:59.446Z,14.85
2017-12-01T07:10:26.211Z,14.45
2017-12-01T07:12:52.933Z,14.52
2017-12-01T07:15:19.666Z,15.07
2017-12-01T07:17:46.415Z,16.70
2017-12-01T07:20:13.144Z,17.27
2017-12-01T07:22:39.877Z,16.73
2017-12-01T07:25:06.618Z,16.55
2017-12-01T07:27:33.333Z,15.90
2017-12-01T07:30:00.054Z,16.50
2017-12-01T07:32:26.798Z,18.60
2017-12-01T07:34:53.557Z,18.20
2017-12-01T07:37:20.305Z,17.10
2017-12-01T07:39:47.093Z,15.80
2017-12-01T07:42:13.841Z,16.08
2017-12-01T07:44:42.099Z,16.23
2017-12-01T07:47:08.866Z,17.40
2017-12-01T07:49:35.627Z,15.85
2017-12-01T07:52:02.368Z,16.15
2017-12-01T07:54:29.139Z,16.25
2017-12-01T07:56:55.881Z,17.07
2017-12-01T07:59:22.654Z,14.87
2017-12-01T08:01:49.405Z,15.13
2017-12-01T08:04:16.150Z,15.57
2017-12-01T08:06:42.926Z,14.00
2017-12-01T08:09:09.720Z,15.93
2017-12-01T08:11:36.486Z,13.65
2017-12-01T08:14:03.230Z,13.50
2017-12-01T08:16:35.915Z,13.57
2017-12-01T08:19:02.718Z,14.52
2017-12-01T08:21:35.414Z,15.55
2017-12-01T08:24:08.113Z,13.40
2017-12-01T08:26:34.868Z,13.90
2017-12-01T08:29:01.629Z,12.90
2017-12-01T08:31:28.508Z,13.80
2017-12-01T08:33:55.291Z,12.83
2017-12-01T08:36:22.046Z,12.30
2017-12-01T08:38:48.762Z,14.93
2017-12-01T08:41:15.503Z,13.53
2017-12-01T08:43:42.220Z,13.50
2017-12-01T08:46:08.949Z,12.40
2017-12-01T08:48:35.678Z,12.07
2017-12-01T08:51:02.416Z,12.07
2017-12-01T08:53:29.181Z,12.30
2017-12-01T08:55:55.912Z,12.87
2017-12-01T08:58:22.648Z,13.20
2017-12-01T09:00:49.397Z,11.70
2017-12-01T09:03:16.133Z,10.30
2017-12-01T09:05:42.853Z,9.47
2017-12-01T09:08:09.622Z,10.50
2017-12-01T09:10:36.340Z,10.60
2017-12-01T09:13:03.051Z,9.70
2017-12-01T09:15:29.803Z,9.50
2017-12-01T09:17:56.545Z,8.63
2017-12-01T09:20:23.283Z,7.57
2017-12-01T09:22:50.015Z,8.50
2017-12-01T09:25:16.733Z,9.23
2017-12-01T09:27:43.472Z,8.60
2017-12-01T09:30:10.212Z,8.10
2017-12-01T09:32:36.954Z,7.90
2017-12-01T09:35:03.717Z,7.77
2017-12-01T09:37:30.475Z,7.03
2017-12-01T09:39:57.240Z,7.17
2017-12-01T09:42:24.001Z,7.33
2017-12-01T09:44:50.777Z,8.40
2017-12-01T09:47:17.549Z,8.87
2017-12-01T09:49:44.249Z,7.67
2017-12-01T09:52:10.988Z,7.60
2017-12-01T09:54:37.706Z,8.30
2017-12-01T09:57:04.434Z,7.40
2017-12-01T09:59:31.156Z,7.50
2017-12-01T10:01:57.888Z,8.60
2017-12-01T10:04:24.622Z,8.73
2017-12-01T10:06:51.350Z,9.00
2017-12-01T10:09:18.077Z,9.40
2017-12-01T10:11:44.817Z,9.17
2017-12-01T10:14:11.541Z,10.17
2017-12-01T10:16:38.260Z,9.70
2017-12-01T10:19:05.010Z,9.17
2017-12-01T10:21:31.746Z,10.17
2017-12-01T10:23:58.494Z,10.17
2017-12-01T10:26:25.229Z,9.60
2017-12-01T10:28:51.974Z,9.17
2017-12-01T10:31:18.704Z,11.63
2017-12-01T10:33:45.457Z,9.80
2017-12-01T10:36:12.207Z,10.20
2017-12-01T10:38:38.954Z,10.20
2017-12-01T10:41:05.683Z,8.60
2017-12-01T10:43:40.740Z,10.40
2017-12-01T10:46:08.110Z,9.27
2017-12-01T10:48:35.440Z,9.13
2017-12-01T10:51:02.717Z,9.47
2017-12-01T10:53:32.341Z,9.23
2017-12-01T10:56:00.986Z,8.80
2017-12-01T10:58:28.063Z,8.60
2017-12-01T11:04:00.140Z,9.57
2017-12-01T11:06:52.292Z,8.83
2017-12-01T11:09:20.099Z,8.30
2017-12-01T11:11:48.064Z,8.60
2017-12-01T11:14:14.800Z,9.40
2017-12-01T11:16:42.063Z,7.93
2017-12-01T11:19:10.058Z,8.50
2017-12-01T11:21:59.035Z,9.23
2017-12-01T11:24:50.333Z,8.63
2017-12-01T11:27:18.102Z,8.63
2017-12-01T11:29:51.097Z,7.70
2017-12-01T11:35:23.757Z,8.10
2017-12-01T11:37:51.445Z,7.73
2017-12-01T11:40:40.841Z,8.13
2017-12-01T11:46:26.558Z,10.43
2017-12-01T11:49:20.176Z,9.40
2017-12-01T11:51:48.373Z,10.50
2017-12-01T11:54:15.127Z,11.93
2017-12-01T11:56:41.873Z,11.77
2017-12-01T11:59:08.608Z,11.50
2017-12-01T12:01:35.354Z,13.23
2017-12-01T12:04:02.091Z,14.80
2017-12-01T12:06:28.847Z,14.60
2017-12-01T12:08:55.625Z,14.90
2017-12-01T12:11:22.380Z,16.07
2017-12-01T12:13:49.135Z,15.67
2017-12-01T12:16:15.993Z,15.27
2017-12-01T12:18:42.745Z,16.23
2017-12-01T12:21:09.479Z,15.20
2017-12-01T12:23:36.241Z,14.33
2017-12-01T12:26:02.992Z,14.20
2017-12-01T12:28:29.767Z,14.00
2017-12-01T12:30:56.530Z,15.53
2017-12-01T12:33:23.304Z,15.83
2017-12-01T12:35:50.058Z,15.43
2017-12-01T12:38:16.815Z,14.20
2017-12-01T12:40:43.576Z,16.00
2017-12-01T12:43:10.314Z,16.23
2017-12-01T12:45:37.102Z,16.40
2017-12-01T12:48:03.868Z,15.87
2017-12-01T12:50:30.662Z,14.73
2017-12-01T12:52:57.407Z,15.93
2017-12-01T12:55:24.160Z,15.73
2017-12-01T12:57:50.930Z,16.00
2017-12-01T13:00:17.725Z,14.97
2017-12-01T13:02:44.473Z,14.43
2017-12-01T13:05:11.234Z,14.13
2017-12-01T13:07:37.994Z,15.13
2017-12-01T13:10:04.727Z,15.53
2017-12-01T13:12:31.483Z,15.53
2017-12-01T13:14:58.277Z,17.77
2017-12-01T13:17:25.003Z,17.43
2017-12-01T13:19:51.762Z,15.57
2017-12-01T13:22:18.525Z,15.60
2017-12-01T13:24:45.291Z,14.80
2017-12-01T13:27:12.048Z,16.07
2017-12-01T13:29:38.802Z,15.80
2017-12-01T13:32:05.567Z,16.70
2017-12-01T13:34:32.286Z,16.40
2017-12-01T13:36:59.032Z,15.90
2017-12-01T13:39:25.762Z,15.50
2017-12-01T13:41:52.544Z,16.40
2017-12-01T13:44:19.370Z,17.93
2017-12-01T13:46:46.207Z,16.40
2017-12-01T13:49:12.951Z,17.20
2017-12-01T13:51:39.712Z,17.97
2017-12-01T13:54:06.478Z,18.27
2017-12-01T13:56:33.230Z,16.90
2017-12-01T13:59:00.019Z,16.30
2017-12-01T14:01:26.799Z,18.10
2017-12-01T14:03:53.519Z,16.83
2017-12-01T14:06:20.336Z,17.87
2017-12-01T14:09:15.562Z,15.80
2017-12-01T14:11:42.267Z,15.93
2017-12-01T14:14:08.985Z,16.33
2017-12-01T14:16:35.726Z,17.70
2017-12-01T14:19:02.502Z,16.17
2017-12-01T14:21:29.230Z,16.43
2017-12-01T14:23:55.942Z,16.90
2017-12-01T14:26:22.694Z,15.20
2017-12-01T14:28:49.413Z,16.03
2017-12-01T14:31:16.134Z,14.70
2017-12-01T14:33:42.893Z,13.67
2017-12-01T14:36:09.630Z,15.83
2017-12-01T14:38:36.792Z,15.30
2017-12-01T14:41:03.538Z,14.17
2017-12-01T14:43:30.283Z,15.90
2017-12-01T14:45:57.016Z,15.10
2017-12-01T14:48:23.762Z,15.60
2017-12-01T14:50:50.516Z,14.23
2017-12-01T14:53:17.265Z,16.10
2017-12-01T14:55:44.064Z,14.77
2017-12-01T14:58:10.798Z,14.00
2017-12-01T15:00:37.557Z,14.00
2017-12-01T15:03:04.291Z,15.70
2017-12-01T15:05:31.021Z,14.03
2017-12-01T15:07:57.851Z,14.67
2017-12-01T15:10:24.576Z,15.63
2017-12-01T15:12:51.335Z,13.90
2017-12-01T15:15:18.076Z,15.10
2017-12-01T15:17:44.811Z,14.17
2017-12-01T15:20:11.529Z,13.47
2017-12-01T15:22:38.262Z,12.83
2017-12-01T15:25:04.995Z,13.60
2017-12-01T15:27:31.714Z,14.73
2017-12-01T15:29:58.445Z,14.53
2017-12-01T15:32:25.191Z,13.60
2017-12-01T15:34:51.916Z,14.40
2017-12-01T15:37:18.673Z,12.63
2017-12-01T15:39:45.403Z,12.50
2017-12-01T15:42:12.176Z,13.40
2017-12-01T15:44:38.889Z,14.17
2017-12-01T15:47:05.651Z,14.30
2017-12-01T15:49:32.370Z,13.37
2017-12-01T15:51:59.117Z,13.83
2017-12-01T15:54:25.851Z,13.23
2017-12-01T15:56:52.574Z,13.60
2017-12-01T15:59:19.290Z,13.20
2017-12-01T16:01:46.051Z,13.63
2017-12-01T16:04:12.809Z,13.10
2017-12-01T16:06:39.575Z,11.80
2017-12-01T16:09:06.330Z,12.30
2017-12-01T16:11:33.110Z,11.60
2017-12-01T16:13:59.849Z,9.93
2017-12-01T16:16:26.626Z,9.57
2017-12-01T16:18:53.387Z,9.93
2017-12-01T16:21:20.157Z,11.40
2017-12-01T16:23:46.945Z,12.67
2017-12-01T16:26:13.740Z,11.63
2017-12-01T16:28:40.511Z,12.13
2017-12-01T16:31:07.298Z,12.73
2017-12-01T16:33:34.039Z,13.67
2017-12-01T16:36:00.775Z,12.00
2017-12-01T16:38:27.523Z,9.50
2017-12-01T16:40:54.273Z,10.50
2017-12-01T16:43:21.003Z,9.67
2017-12-01T16:45:47.775Z,13.30
2017-12-01T16:48:14.542Z,12.70
2017-12-01T16:50:41.315Z,14.13
2017-12-01T16:53:08.043Z,17.20
2017-12-01T16:55:34.806Z,16.93
2017-12-01T16:58:01.566Z,15.50
2017-12-01T17:00:28.334Z,14.93
2017-12-01T17:02:55.078Z,13.70
2017-12-01T17:05:21.822Z,15.90
2017-12-01T17:07:48.566Z,14.20
2017-12-01T17:10:15.316Z,11.90
2017-12-01T17:12:42.063Z,9.40
2017-12-01T17:15:08.805Z,13.20
2017-12-01T17:17:35.546Z,12.60
2017-12-01T17:20:02.292Z,11.33
2017-12-01T17:22:29.051Z,9.40
2017-12-01T17:24:55.773Z,8.87
2017-12-01T17:27:25.477Z,12.73
2017-12-01T17:29:52.217Z,10.60
2017-12-01T17:32:18.948Z,12.17
2017-12-01T17:34:45.714Z,14.10
2017-12-01T17:37:12.522Z,13.47
2017-12-01T17:39:39.296Z,15.40
2017-12-01T17:42:06.055Z,24.13
2017-12-01T17:44:32.817Z,14.47
2017-12-01T17:46:59.561Z,13.93
2017-12-01T17:49:26.325Z,15.80
2017-12-01T17:51:53.094Z,15.43
2017-12-01T17:54:19.859Z,14.40
2017-12-01T17:56:46.592Z,13.50
2017-12-01T17:59:13.362Z,14.70
2017-12-01T18:01:40.116Z,13.97
2017-12-01T18:04:06.876Z,14.73
2017-12-01T18:06:33.683Z,14.00
2017-12-01T18:09:00.442Z,14.70
2017-12-01T18:11:27.198Z,13.73
2017-12-01T18:13:53.934Z,13.60
2017-12-01T18:16:20.672Z,13.37
2017-12-01T18:18:47.409Z,13.33
2017-12-01T18:21:14.231Z,12.60
2017-12-01T18:23:40.977Z,13.90
2017-12-01T18:26:07.730Z,13.90
2017-12-01T18:28:34.531Z,14.00
2017-12-01T18:31:01.294Z,13.60
2017-12-01T18:33:28.080Z,13.70
2017-12-01T18:35:54.803Z,12.57
2017-12-01T18:38:21.530Z,14.60
2017-12-01T18:40:48.296Z,14.50
2017-12-01T18:43:15.078Z,15.03
2017-12-01T18:45:41.815Z,13.63
2017-12-01T18:48:08.566Z,14.37
2017-12-01T18:50:35.321Z,14.60
2017-12-01T18:53:02.090Z,13.27
2017-12-01T18:55:28.843Z,14.17
2017-12-01T18:57:55.645Z,13.90
2017-12-01T19:00:22.417Z,14.83
2017-12-01T19:02:49.155Z,14.37
2017-12-01T19:05:15.921Z,13.93
2017-12-01T19:07:42.686Z,11.90
2017-12-01T19:10:09.460Z,12.40
2017-12-01T19:12:36.201Z,13.30
2017-12-01T19:15:03.000Z,12.37
2017-12-01T19:17:29.793Z,12.23
2017-12-01T19:19:56.588Z,13.50
2017-12-01T19:22:23.331Z,13.97
2017-12-01T19:24:50.138Z,11.57
2017-12-01T19:27:16.970Z,11.93
2017-12-01T19:29:43.758Z,12.30
2017-12-01T19:32:10.616Z,12.03
2017-12-01T19:34:37.402Z,11.50
2017-12-01T19:37:04.173Z,12.20
2017-12-01T19:39:30.938Z,12.87
2017-12-01T19:41:57.731Z,13.73
2017-12-01T19:44:24.489Z,13.50
2017-12-01T19:46:51.236Z,14.00
2017-12-01T19:49:18.006Z,8.13
2017-12-01T19:51:44.760Z,8.37
2017-12-01T19:54:11.520Z,8.30
2017-12-01T19:56:38.267Z,10.77
2017-12-01T19:59:05.025Z,12.20
2017-12-01T20:01:31.804Z,12.50
2017-12-01T20:04:02.810Z,13.03
2017-12-01T20:06:29.708Z,10.50
2017-12-01T20:08:56.476Z,10.83
2017-12-01T20:11:23.238Z,11.07
2017-12-01T20:13:49.994Z,12.20
2017-12-01T20:16:16.763Z,10.70
2017-12-01T20:18:43.540Z,7.70
2017-12-01T20:21:10.297Z,8.27
2017-12-01T20:23:37.061Z,7.90
2017-12-01T20:26:03.839Z,7.33
2017-12-01T20:28:30.624Z,9.10
2017-12-01T20:30:57.414Z,10.63
2017-12-01T20:33:24.160Z,8.37
2017-12-01T20:35:50.914Z,8.50
2017-12-01T20:38:17.676Z,9.83
2017-12-01T20:40:44.450Z,9.90
2017-12-01T20:43:11.204Z,11.23
2017-12-01T20:45:38.009Z,10.80
2017-12-01T20:48:04.789Z,10.73
2017-12-01T20:50:31.644Z,11.43
2017-12-01T20:52:58.403Z,11.00
2017-12-01T20:55:25.150Z,12.67
2017-12-01T20:57:51.904Z,11.13
2017-12-01T21:00:18.647Z,11.20
2017-12-01T21:02:45.426Z,11.60
2017-12-01T21:05:12.198Z,11.40
2017-12-01T21:07:38.974Z,11.83
2017-12-01T21:10:05.743Z,12.57
2017-12-01T21:12:32.528Z,12.83
2017-12-01T21:14:59.296Z,10.70
2017-12-01T21:17:26.081Z,10.80
2017-12-01T21:19:52.943Z,12.20
2017-12-01T21:22:19.709Z,11.80
2017-12-01T21:24:46.466Z,13.17
2017-12-01T21:27:13.208Z,13.87
2017-12-01T21:29:41.133Z,13.10
2017-12-01T21:32:07.916Z,13.87
2017-12-01T21:34:34.698Z,16.00
2017-12-01T21:37:01.463Z,17.37
2017-12-01T21:39:28.250Z,16.90
2017-12-01T21:41:55.020Z,18.17
2017-12-01T21:44:21.788Z,15.50
2017-12-01T21:46:48.566Z,15.20
2017-12-01T21:49:15.370Z,16.17
2017-12-01T21:51:42.160Z,18.33
2017-12-01T21:54:08.924Z,17.20
2017-12-01T21:56:35.711Z,17.10
2017-12-01T21:59:02.536Z,19.20
2017-12-01T22:01:29.331Z,18.67
2017-12-01T22:03:56.060Z,17.03
2017-12-01T22:06:22.820Z,18.50
2017-12-01T22:08:49.569Z,18.60
2017-12-01T22:11:16.318Z,17.97
2017-12-01T22:13:43.112Z,18.93
2017-12-01T22:16:09.904Z,18.83
2017-12-01T22:18:36.654Z,20.37
2017-12-01T22:21:03.467Z,19.20
2017-12-01T22:23:30.256Z,20.23
2017-12-01T22:25:57.092Z,20.07
2017-12-01T22:28:23.882Z,19.90
2017-12-01T22:30:50.620Z,19.03
2017-12-01T22:33:17.367Z,20.97
2017-12-01T22:35:44.130Z,21.37
2017-12-01T22:38:10.913Z,19.17
2017-12-01T22:40:37.658Z,19.57
2017-12-01T22:43:04.421Z,21.10
2017-12-01T22:45:31.151Z,22.60
2017-12-01T22:47:57.900Z,21.47
2017-12-01T22:50:24.626Z,23.97
2017-12-01T22:52:51.352Z,24.53
2017-12-01T22:55:18.109Z,22.20
2017-12-01T22:57:44.838Z,24.60
2017-12-01T23:00:11.571Z,25.40
2017-12-01T23:02:38.332Z,24.03
2017-12-01T23:05:05.078Z,24.87
2017-12-01T23:07:31.810Z,25.53
2017-12-01T23:09:58.558Z,26.60
2017-12-01T23:12:25.294Z,26.23
2017-12-01T23:14:52.033Z,28.13
2017-12-01T23:17:18.780Z,27.17
2017-12-01T23:19:45.509Z,33.53
2017-12-01T23:22:12.244Z,32.90
2017-12-01T23:24:38.987Z,34.07
2017-12-01T23:27:05.712Z,32.50
2017-12-01T23:29:32.449Z,31.97
2017-12-01T23:31:59.164Z,31.73
2017-12-01T23:34:25.967Z,30.93
2017-12-01T23:36:52.749Z,28.77
2017-12-01T23:39:19.493Z,29.67
2017-12-01T23:41:46.227Z,28.47
2017-12-01T23:44:12.976Z,28.57
2017-12-01T23:46:39.722Z,26.50
2017-12-01T23:49:06.455Z,28.37
2017-12-01T23:51:33.208Z,28.80
2017-12-01T23:53:59.934Z,29.43
2017-12-01T23:56:26.669Z,26.53
2017-12-01T23:58:53.414Z,27.00
